Time;durP1;ratioP1;P1;durP2;ratioP2;P2;SDS_P1;SDS_P2;PMS_P1;PMS_P2;Temp;Humidity;BMP_temperature;BMP_pressure;BME280_temperature;BME280_humidity;BME280_pressure;Samples;Min_cycle;Max_cycle;Signal;HPM_P1;HPM_P2
2024/01/01 00:00:14;;;;;;;;;;;;;;;13.32;55.62;101912.46;110429;1258;22428;-52
2024/01/01 00:02:41;;;;;;;;;;;;;;;13.31;55.58;101908.84;110625;1252;23219;-52
2024/01/01 00:05:08;;;;;;;;;;;;;;;13.30;55.62;101916.33;110629;1256;22498;-52
2024/01/01 00:07:35;;;;;;;;;;;;;;;13.29;55.60;101916.34;110601;1256;22399;-52
2024/01/01 00:10:02;;;;;;;;;;;;;;;13.28;55.63;101918.10;110300;1254;348617;-52
2024/01/01 00:12:29;;;;;;;;;;;;;;;13.28;55.91;101921.59;110551;1258;22442;-52
2024/01/01 00:14:55;;;;;;;;;;;;;;;13.29;56.05;101922.98;110634;1262;22470;-52
2024/01/01 00:17:22;;;;;;;;;;;;;;;13.29;56.19;101919.31;110612;1252;22441;-52
2024/01/01 00:19:49;;;;;;;;;;;;;;;13.30;56.16;101920.86;110590;1259;22450;-53
2024/01/01 00:22:15;;;;;;;;;;;;;;;13.30;56.44;101922.95;110466;1262;23221;-52
2024/01/01 00:24:44;;;;;;;;;;;;;;;13.31;56.60;101915.80;110274;1269;22451;-52
2024/01/01 00:27:11;;;;;;;;;;;;;;;13.32;56.69;101912.64;109829;1255;1002878;-52
2024/01/01 00:29:37;;;;;;;;;;;;;;;13.33;56.75;101910.19;110557;1263;22410;-52
2024/01/01 00:32:05;;;;;;;;;;;;;;;13.34;56.95;101911.73;110635;1251;22416;-52
2024/01/01 00:34:32;;;;;;;;;;;;;;;13.36;56.93;101910.50;110281;1261;23248;-52
2024/01/01 00:36:59;;;;;;;;;;;;;;;13.37;56.99;101907.51;110633;1262;23272;-52
2024/01/01 00:39:26;;;;;;;;;;;;;;;13.38;56.93;101905.39;110540;1254;22481;-52
2024/01/01 00:41:53;;;;;;;;;;;;;;;13.38;56.90;101898.60;110587;1262;22410;-52
2024/01/01 00:44:20;;;;;;;;;;;;;;;13.38;56.84;101892.69;110583;1255;23143;-52
2024/01/01 00:46:47;;;;;;;;;;;;;;;13.38;56.87;101890.77;110592;1262;22493;-52
2024/01/01 00:49:16;;;;;;;;;;;;;;;13.38;56.86;101885.20;110640;1253;23182;-52
2024/01/01 00:51:43;;;;;;;;;;;;;;;13.38;56.89;101882.92;110626;1256;22416;-52
2024/01/01 00:54:10;;;;;;;;;;;;;;;13.39;56.86;101884.13;110627;1256;23054;-52
2024/01/01 00:56:36;;;;;;;;;;;;;;;13.39;56.87;101884.14;110447;1256;22472;-52
2024/01/01 00:59:03;;;;;;;;;;;;;;;13.38;56.99;101881.52;110544;1264;22758;-54
2024/01/01 01:01:30;;;;;;;;;;;;;;;13.38;57.07;101878.04;110502;1269;22448;-52
2024/01/01 01:03:59;;;;;;;;;;;;;;;13.39;57.06;101879.25;110494;1267;23286;-53
2024/01/01 01:06:25;;;;;;;;;;;;;;;13.39;57.11;101876.65;110519;1257;22392;-52
2024/01/01 01:08:53;;;;;;;;;;;;;;;13.39;57.21;101872.63;110526;1257;23138;-52
2024/01/01 01:11:20;;;;;;;;;;;;;;;13.40;57.22;101871.55;109710;1258;1002227;-52
2024/01/01 01:13:48;;;;;;;;;;;;;;;13.41;57.28;101867.02;110362;1269;22426;-52
2024/01/01 01:16:17;;;;;;;;;;;;;;;13.40;57.42;101866.86;110202;1270;22441;-52
2024/01/01 01:18:44;;;;;;;;;;;;;;;13.41;57.48;101864.92;110538;1253;23247;-52
2024/01/01 01:21:13;;;;;;;;;;;;;;;13.43;57.56;101860.37;110457;1257;22438;-52
2024/01/01 01:23:40;;;;;;;;;;;;;;;13.43;57.55;101850.93;110440;1261;22429;-52
2024/01/01 01:26:07;;;;;;;;;;;;;;;13.45;57.66;101848.83;110131;1259;22444;-52
2024/01/01 01:28:34;;;;;;;;;;;;;;;13.46;57.57;101846.36;110384;1260;22443;-52
2024/01/01 01:31:01;;;;;;;;;;;;;;;13.46;57.60;101851.77;110482;1266;23118;-52
2024/01/01 01:33:28;;;;;;;;;;;;;;;13.47;57.54;101851.21;110522;1253;22503;-52
2024/01/01 01:35:57;;;;;;;;;;;;;;;13.47;57.54;101847.74;109795;1262;1002401;-52
2024/01/01 01:38:23;;;;;;;;;;;;;;;13.47;57.53;101843.02;110571;1274;22413;-52
2024/01/01 01:40:50;;;;;;;;;;;;;;;13.47;57.50;101842.67;110567;1262;22827;-52
2024/01/01 01:43:21;;;;;;;;;;;;;;;13.48;57.40;101842.66;110604;1262;22442;-52
2024/01/01 01:45:48;;;;;;;;;;;;;;;13.46;57.45;101843.74;110680;1253;22590;-52
2024/01/01 01:48:15;;;;;;;;;;;;;;;13.47;57.43;101844.44;110625;1256;22493;-52
2024/01/01 01:50:44;;;;;;;;;;;;;;;13.46;57.59;101840.08;109781;1258;1002234;-52
2024/01/01 01:53:13;;;;;;;;;;;;;;;13.47;57.65;101837.29;110545;1257;22435;-52
2024/01/01 01:55:43;;;;;;;;;;;;;;;13.48;57.78;101835.00;110609;1251;23294;-52
2024/01/01 01:58:10;;;;;;;;;;;;;;;13.50;57.87;101829.55;110575;1258;22496;-52
2024/01/01 02:00:37;;;;;;;;;;;;;;;13.51;57.97;101826.77;110167;1270;22413;-52
2024/01/01 02:03:05;;;;;;;;;;;;;;;13.52;58.21;101826.20;110662;1257;23307;-52
2024/01/01 02:05:32;;;;;;;;;;;;;;;13.52;58.34;101818.88;110584;1263;22395;-52
2024/01/01 02:08:01;;;;;;;;;;;;;;;13.53;58.29;101814.88;110655;1256;22423;-52
2024/01/01 02:10:28;;;;;;;;;;;;;;;13.54;58.34;101809.98;110269;1272;23170;-52
2024/01/01 02:12:55;;;;;;;;;;;;;;;13.54;58.44;101804.77;110433;1265;23105;-52
2024/01/01 02:15:21;;;;;;;;;;;;;;;13.53;58.47;101804.06;110649;1261;22412;-52
2024/01/01 02:17:48;;;;;;;;;;;;;;;13.53;58.51;101803.55;110629;1262;22489;-52
2024/01/01 02:20:15;;;;;;;;;;;;;;;13.52;58.60;101799.19;110351;1267;22429;-52
2024/01/01 02:22:45;;;;;;;;;;;;;;;13.51;58.68;101800.96;110586;1262;22395;-52
2024/01/01 02:25:12;;;;;;;;;;;;;;;13.51;58.69;101799.73;110641;1259;22436;-52
2024/01/01 02:27:40;;;;;;;;;;;;;;;13.52;58.79;101797.80;110650;1253;22442;-52
2024/01/01 02:30:10;;;;;;;;;;;;;;;13.52;58.88;101793.79;110588;1263;23212;-52
2024/01/01 02:32:37;;;;;;;;;;;;;;;13.53;59.04;101792.38;110633;1254;22526;-52
2024/01/01 02:35:07;;;;;;;;;;;;;;;13.53;59.11;101789.25;110640;1261;22649;-52
2024/01/01 02:37:34;;;;;;;;;;;;;;;13.53;59.12;101784.20;110586;1262;22493;-52
2024/01/01 02:40:02;;;;;;;;;;;;;;;13.54;59.17;101783.13;109889;1262;1002084;-53
2024/01/01 02:42:29;;;;;;;;;;;;;;;13.54;59.15;101788.54;110640;1262;22474;-52
2024/01/01 02:44:55;;;;;;;;;;;;;;;13.54;59.10;101784.53;110289;1264;22492;-52
2024/01/01 02:47:22;;;;;;;;;;;;;;;13.54;59.26;101788.02;110574;1256;23247;-52
2024/01/01 02:49:49;;;;;;;;;;;;;;;13.54;59.27;101784.16;110578;1257;22407;-52
2024/01/01 02:52:16;;;;;;;;;;;;;;;13.55;59.31;101779.45;110544;1257;22420;-53
2024/01/01 02:54:43;;;;;;;;;;;;;;;13.56;59.43;101775.95;110609;1252;22402;-53
2024/01/01 02:57:09;;;;;;;;;;;;;;;13.58;59.44;101772.43;110611;1256;22421;-53
2024/01/01 02:59:36;;;;;;;;;;;;;;;13.59;59.37;101765.77;110535;1254;22897;-53
2024/01/01 03:02:03;;;;;;;;;;;;;;;13.60;59.40;101758.27;110639;1255;23326;-53
2024/01/01 03:04:31;;;;;;;;;;;;;;;13.62;59.28;101753.17;110659;1262;22434;-53
2024/01/01 03:06:58;;;;;;;;;;;;;;;13.62;59.35;101747.94;110497;1266;23331;-53
2024/01/01 03:09:24;;;;;;;;;;;;;;;13.64;59.27;101743.89;110622;1262;22456;-53
2024/01/01 03:11:51;;;;;;;;;;;;;;;13.65;59.25;101748.05;110628;1256;22445;-53
2024/01/01 03:14:18;;;;;;;;;;;;;;;13.66;59.38;101742.10;110579;1256;22621;-53
2024/01/01 03:16:45;;;;;;;;;;;;;;;13.67;59.29;101741.55;110715;1262;22401;-53
2024/01/01 03:19:12;;;;;;;;;;;;;;;13.68;59.35;101745.55;109873;1257;1002341;-54
2024/01/01 03:21:38;;;;;;;;;;;;;;;13.69;59.37;101745.19;110352;1268;22536;-53
2024/01/01 03:24:05;;;;;;;;;;;;;;;13.71;59.42;101746.73;110585;1256;22923;-54
2024/01/01 03:26:34;;;;;;;;;;;;;;;13.71;59.43;101743.05;110397;1266;22435;-54
2024/01/01 03:29:03;;;;;;;;;;;;;;;13.73;59.59;101740.73;110644;1255;22383;-54
2024/01/01 03:31:29;;;;;;;;;;;;;;;13.75;59.65;101741.23;110628;1267;22423;-54
2024/01/01 03:33:56;;;;;;;;;;;;;;;13.77;59.63;101740.33;110596;1264;23062;-54
2024/01/01 03:36:23;;;;;;;;;;;;;;;13.78;59.67;101742.23;110604;1256;22448;-54
2024/01/01 03:38:50;;;;;;;;;;;;;;;13.80;59.77;101738.88;110616;1256;22450;-54
2024/01/01 03:41:17;;;;;;;;;;;;;;;13.81;59.80;101737.11;110575;1262;22398;-54
2024/01/01 03:43:44;;;;;;;;;;;;;;;13.82;59.87;101733.62;110160;1270;22466;-54
2024/01/01 03:46:10;;;;;;;;;;;;;;;13.84;59.94;101731.98;110698;1253;22415;-54
2024/01/01 03:48:37;;;;;;;;;;;;;;;13.85;59.98;101729.52;110631;1264;23262;-54
2024/01/01 03:51:04;;;;;;;;;;;;;;;13.88;59.97;101727.03;110633;1262;22484;-54
2024/01/01 03:53:31;;;;;;;;;;;;;;;13.90;60.00;101724.73;110322;1274;22429;-54
2024/01/01 03:55:58;;;;;;;;;;;;;;;13.91;59.99;101725.04;110302;1267;22453;-54
2024/01/01 03:58:24;;;;;;;;;;;;;;;13.91;60.07;101729.05;110621;1256;22447;-54
2024/01/01 04:00:51;;;;;;;;;;;;;;;13.93;60.05;101728.48;110636;1256;22527;-54
2024/01/01 04:03:18;;;;;;;;;;;;;;;13.95;60.17;101720.09;110595;1265;22395;-54
2024/01/01 04:05:44;;;;;;;;;;;;;;;13.96;60.19;101719.36;109890;1255;1002841;-54
2024/01/01 04:08:11;;;;;;;;;;;;;;;13.98;60.11;101718.98;110630;1268;22420;-54
2024/01/01 04:10:38;;;;;;;;;;;;;;;13.99;60.09;101720.35;110625;1262;23128;-54
2024/01/01 04:13:05;;;;;;;;;;;;;;;14.01;60.21;101722.58;110629;1256;22479;-54
2024/01/01 04:15:31;;;;;;;;;;;;;;;14.03;60.12;101722.55;110571;1257;22439;-54
2024/01/01 04:17:58;;;;;;;;;;;;;;;14.03;59.96;101720.09;110666;1262;22427;-54
2024/01/01 04:20:25;;;;;;;;;;;;;;;14.04;60.02;101713.61;110342;1267;22460;-54
2024/01/01 04:22:52;;;;;;;;;;;;;;;14.04;59.77;101708.73;110620;1262;22438;-54
2024/01/01 04:25:19;;;;;;;;;;;;;;;14.03;59.64;101704.05;110608;1256;23196;-54
2024/01/01 04:27:46;;;;;;;;;;;;;;;14.02;59.51;101708.08;110377;1258;22455;-54
2024/01/01 04:30:13;;;;;;;;;;;;;;;14.00;59.47;101704.80;110626;1262;23212;-54
2024/01/01 04:32:40;;;;;;;;;;;;;;;13.99;59.29;101703.27;110672;1262;22410;-54
2024/01/01 04:35:07;;;;;;;;;;;;;;;13.99;59.23;101699.08;110326;1256;22492;-54
2024/01/01 04:37:33;;;;;;;;;;;;;;;13.98;59.17;101692.81;109821;1264;1002113;-54
2024/01/01 04:40:00;;;;;;;;;;;;;;;13.98;59.11;101689.84;110580;1264;22427;-54
2024/01/01 04:42:27;;;;;;;;;;;;;;;13.99;59.05;101692.27;110643;1254;22433;-54
2024/01/01 04:44:53;;;;;;;;;;;;;;;13.98;58.91;101688.98;110657;1256;22464;-54
2024/01/01 04:47:22;;;;;;;;;;;;;;;13.96;58.94;101686.39;110601;1262;22421;-54
2024/01/01 04:49:48;;;;;;;;;;;;;;;13.95;58.89;101690.27;110634;1262;23252;-54
2024/01/01 04:52:16;;;;;;;;;;;;;;;13.95;58.96;101696.20;110605;1263;22478;-53
2024/01/01 04:54:43;;;;;;;;;;;;;;;13.94;59.06;101690.79;110625;1256;22436;-53
2024/01/01 04:57:10;;;;;;;;;;;;;;;13.96;59.01;101687.27;109880;1256;1002136;-53
2024/01/01 04:59:36;;;;;;;;;;;;;;;13.97;58.85;101689.35;110578;1255;22412;-53
2024/01/01 05:02:03;;;;;;;;;;;;;;;13.98;58.92;101688.28;110669;1265;22397;-53
2024/01/01 05:04:30;;;;;;;;;;;;;;;13.99;58.97;101683.73;110524;1257;22442;-53
2024/01/01 05:06:57;;;;;;;;;;;;;;;13.99;58.86;101682.69;110378;1275;22437;-53
2024/01/01 05:09:24;;;;;;;;;;;;;;;13.98;58.84;101683.38;110656;1255;22432;-53
2024/01/01 05:11:50;;;;;;;;;;;;;;;13.99;58.76;101683.38;110589;1270;23171;-53
2024/01/01 05:14:17;;;;;;;;;;;;;;;13.99;58.73;101685.48;110612;1254;22436;-53
2024/01/01 05:16:44;;;;;;;;;;;;;;;13.98;58.59;101678.16;110663;1255;23167;-53
2024/01/01 05:19:11;;;;;;;;;;;;;;;13.95;58.46;101678.36;110612;1256;23215;-53
2024/01/01 05:21:38;;;;;;;;;;;;;;;13.94;58.45;101677.55;110635;1265;22392;-52
2024/01/01 05:24:05;;;;;;;;;;;;;;;13.92;58.39;101672.70;110623;1256;22552;-53
2024/01/01 05:26:31;;;;;;;;;;;;;;;13.91;58.48;101673.60;110637;1267;22402;-52
2024/01/01 05:28:58;;;;;;;;;;;;;;;13.91;58.60;101673.59;110611;1253;22410;-52
2024/01/01 05:31:25;;;;;;;;;;;;;;;13.92;58.41;101673.39;110647;1262;22413;-52
2024/01/01 05:33:52;;;;;;;;;;;;;;;13.93;58.40;101673.88;110618;1263;22413;-52
2024/01/01 05:36:18;;;;;;;;;;;;;;;13.95;58.37;101670.04;110489;1262;22461;-52
2024/01/01 05:38:45;;;;;;;;;;;;;;;13.94;58.32;101662.36;110617;1255;22400;-52
2024/01/01 05:41:14;;;;;;;;;;;;;;;13.95;58.20;101658.15;110570;1263;23120;-52
2024/01/01 05:43:41;;;;;;;;;;;;;;;13.94;58.08;101656.44;110699;1262;22431;-52
2024/01/01 05:46:08;;;;;;;;;;;;;;;13.93;58.05;101660.83;110650;1262;23121;-52
2024/01/01 05:48:34;;;;;;;;;;;;;;;13.91;57.96;101656.50;110606;1254;22453;-52
2024/01/01 05:51:08;;;;;;;;;;;;;;;13.91;57.96;101657.88;110611;1271;22365;-53
2024/01/01 05:53:35;;;;;;;;;;;;;;;13.90;57.76;101652.85;110649;1256;23152;-52
2024/01/01 05:56:03;;;;;;;;;;;;;;;13.90;57.71;101652.17;109521;1268;1003053;-52
2024/01/01 05:58:29;;;;;;;;;;;;;;;13.89;57.77;101653.05;110621;1256;22402;-52
2024/01/01 06:00:56;;;;;;;;;;;;;;;13.89;57.79;101647.81;110304;1271;22583;-52
2024/01/01 06:03:22;;;;;;;;;;;;;;;13.89;57.79;101646.95;110304;1271;22452;-52
2024/01/01 06:05:50;;;;;;;;;;;;;;;13.89;57.90;101641.36;110682;1265;22474;-52
2024/01/01 06:08:17;;;;;;;;;;;;;;;13.91;57.88;101637.13;110298;1274;22496;-52
2024/01/01 06:10:43;;;;;;;;;;;;;;;13.93;57.88;101632.73;110617;1265;22564;-52
2024/01/01 06:13:10;;;;;;;;;;;;;;;13.92;57.97;101631.34;110606;1256;22415;-52
2024/01/01 06:15:37;;;;;;;;;;;;;;;13.94;57.99;101633.92;109492;1259;1002400;-52
2024/01/01 06:18:04;;;;;;;;;;;;;;;13.95;58.10;101629.54;109890;1254;1003099;-52
2024/01/01 06:20:31;;;;;;;;;;;;;;;13.97;58.10;101628.98;110589;1262;22443;-52
2024/01/01 06:22:58;;;;;;;;;;;;;;;13.99;58.13;101627.02;110602;1263;22421;-52
2024/01/01 06:25:25;;;;;;;;;;;;;;;14.01;58.19;101627.16;110280;1257;22461;-52
2024/01/01 06:27:51;;;;;;;;;;;;;;;14.02;58.19;101625.38;110664;1256;23133;-52
2024/01/01 06:30:18;;;;;;;;;;;;;;;14.04;58.14;101626.05;109890;1256;1002981;-52
2024/01/01 06:32:48;;;;;;;;;;;;;;;14.05;58.13;101626.55;110642;1256;22519;-52
2024/01/01 06:35:14;;;;;;;;;;;;;;;14.06;58.12;101626.17;110595;1256;22412;-52
2024/01/01 06:37:41;;;;;;;;;;;;;;;14.08;57.99;101620.70;110646;1256;22404;-52
2024/01/01 06:40:08;;;;;;;;;;;;;;;14.11;57.96;101620.64;109847;1253;1002309;-52
2024/01/01 06:42:35;;;;;;;;;;;;;;;14.14;57.89;101617.27;110579;1266;22434;-52
2024/01/01 06:45:06;;;;;;;;;;;;;;;14.16;57.75;101612.15;110542;1255;22443;-52
2024/01/01 06:47:34;;;;;;;;;;;;;;;14.17;57.58;101609.86;110613;1256;22440;-52
2024/01/01 06:50:01;;;;;;;;;;;;;;;14.17;57.50;101604.98;110605;1256;22416;-52
2024/01/01 06:52:28;;;;;;;;;;;;;;;14.18;57.63;101603.23;109819;1257;1002363;-52
2024/01/01 06:54:55;;;;;;;;;;;;;;;14.20;57.67;101602.30;110636;1256;23139;-52
2024/01/01 06:57:21;;;;;;;;;;;;;;;14.23;57.48;101599.05;110333;1260;23190;-52
2024/01/01 06:59:48;;;;;;;;;;;;;;;14.26;57.38;101598.30;110599;1260;22391;-52
2024/01/01 07:02:15;;;;;;;;;;;;;;;14.27;57.45;101597.77;110575;1262;22509;-52
2024/01/01 07:04:41;;;;;;;;;;;;;;;14.29;57.47;101595.48;110556;1254;22902;-52
2024/01/01 07:07:08;;;;;;;;;;;;;;;14.32;57.49;101595.05;110629;1264;22406;-52
2024/01/01 07:09:35;;;;;;;;;;;;;;;14.33;57.45;101592.75;110406;1272;22447;-52
2024/01/01 07:12:21;;;;;;;;;;;;;;;14.34;57.49;101586.09;110643;1256;22412;-54
2024/01/01 07:14:47;;;;;;;;;;;;;;;14.35;57.56;101583.97;110563;1274;22433;-52
2024/01/01 07:17:15;;;;;;;;;;;;;;;14.38;57.72;101582.70;110593;1256;22402;-52
2024/01/01 07:19:42;;;;;;;;;;;;;;;14.40;57.81;101572.52;110448;1266;22435;-52
2024/01/01 07:22:09;;;;;;;;;;;;;;;14.44;57.94;101569.27;110627;1263;22487;-52
2024/01/01 07:24:36;;;;;;;;;;;;;;;14.48;58.06;101568.14;110612;1256;22427;-52
2024/01/01 07:27:03;;;;;;;;;;;;;;;14.52;58.11;101562.09;110643;1264;22462;-52
2024/01/01 07:29:33;;;;;;;;;;;;;;;14.57;58.20;101561.78;110340;1269;22445;-52
2024/01/01 07:31:59;;;;;;;;;;;;;;;14.60;58.21;101561.86;109847;1260;1002705;-52
2024/01/01 07:34:26;;;;;;;;;;;;;;;14.65;58.18;101560.54;110577;1256;23258;-52
2024/01/01 07:36:57;;;;;;;;;;;;;;;14.67;58.28;101551.56;110590;1263;22438;-52
2024/01/01 07:39:24;;;;;;;;;;;;;;;14.69;58.30;101550.63;110232;1276;22495;-52
2024/01/01 07:41:51;;;;;;;;;;;;;;;14.72;58.29;101552.31;110601;1257;22423;-52
2024/01/01 07:44:18;;;;;;;;;;;;;;;14.75;58.27;101547.02;110604;1257;22441;-52
2024/01/01 07:46:46;;;;;;;;;;;;;;;14.76;58.27;101546.61;110591;1257;22605;-52
2024/01/01 07:49:13;;;;;;;;;;;;;;;14.79;58.40;101546.02;110605;1256;22397;-54
2024/01/01 07:51:40;;;;;;;;;;;;;;;14.81;58.32;101546.85;110632;1256;22463;-52
2024/01/01 07:54:07;;;;;;;;;;;;;;;14.83;58.26;101544.87;110604;1255;23217;-52
2024/01/01 07:56:37;;;;;;;;;;;;;;;14.85;58.36;101545.17;110644;1263;22395;-53
2024/01/01 07:59:04;;;;;;;;;;;;;;;14.87;58.35;101542.66;110588;1257;22457;-53
2024/01/01 08:01:31;;;;;;;;;;;;;;;14.90;58.34;101539.44;110220;1270;23087;-52
2024/01/01 08:03:57;;;;;;;;;;;;;;;14.92;58.33;101539.23;110605;1256;22429;-52
2024/01/01 08:06:24;;;;;;;;;;;;;;;14.94;58.29;101537.24;110608;1256;22420;-52
2024/01/01 08:08:51;;;;;;;;;;;;;;;14.96;58.36;101539.61;110589;1265;22488;-53
2024/01/01 08:11:18;;;;;;;;;;;;;;;14.99;58.28;101537.10;110621;1266;22753;-53
2024/01/01 08:13:45;;;;;;;;;;;;;;;15.01;58.20;101539.49;110588;1263;22434;-52
2024/01/01 08:16:12;;;;;;;;;;;;;;;15.02;58.21;101535.10;110567;1256;23213;-52
2024/01/01 08:18:40;;;;;;;;;;;;;;;15.04;58.22;101537.31;110600;1255;22470;-52
2024/01/01 08:21:06;;;;;;;;;;;;;;;15.06;58.25;101531.48;110613;1263;22442;-52
2024/01/01 08:23:33;;;;;;;;;;;;;;;15.07;58.27;101533.73;110607;1263;22419;-52
2024/01/01 08:26:00;;;;;;;;;;;;;;;15.09;58.21;101532.27;110587;1256;22523;-52
2024/01/01 08:28:26;;;;;;;;;;;;;;;15.11;58.17;101529.77;110543;1259;22454;-52
2024/01/01 08:30:53;;;;;;;;;;;;;;;15.11;58.15;101524.00;110597;1255;22499;-52
2024/01/01 08:33:20;;;;;;;;;;;;;;;15.11;58.23;101521.36;110650;1264;22422;-52
2024/01/01 08:35:47;;;;;;;;;;;;;;;15.12;58.18;101519.23;110607;1257;22446;-52
2024/01/01 08:38:14;;;;;;;;;;;;;;;15.13;58.22;101516.94;110241;1260;23165;-52
2024/01/01 08:40:41;;;;;;;;;;;;;;;15.15;58.20;101509.39;110560;1256;22489;-52
2024/01/01 08:43:08;;;;;;;;;;;;;;;15.17;58.23;101504.42;110470;1266;22439;-53
2024/01/01 08:45:35;;;;;;;;;;;;;;;15.20;58.13;101499.27;110610;1263;23200;-52
2024/01/01 08:48:01;;;;;;;;;;;;;;;15.23;58.10;101490.63;109803;1266;1002392;-52
2024/01/01 08:50:28;;;;;;;;;;;;;;;15.24;58.13;101487.95;110620;1263;22501;-53
2024/01/01 08:52:55;;;;;;;;;;;;;;;15.25;58.18;101478.48;110578;1263;22390;-52
2024/01/01 08:55:22;;;;;;;;;;;;;;;15.28;58.04;101480.35;110595;1267;22441;-52
2024/01/01 08:57:49;;;;;;;;;;;;;;;15.30;58.08;101478.70;110588;1264;22411;-52
2024/01/01 09:00:18;;;;;;;;;;;;;;;15.33;58.07;101481.04;110565;1257;22457;-52
2024/01/01 09:02:46;;;;;;;;;;;;;;;15.35;57.97;101474.70;110354;1267;22397;-52
2024/01/01 09:05:14;;;;;;;;;;;;;;;15.36;58.00;101468.19;110550;1272;22496;-52
2024/01/01 09:07:41;;;;;;;;;;;;;;;15.38;57.92;101463.59;110605;1260;23365;-52
2024/01/01 09:10:08;;;;;;;;;;;;;;;15.39;57.84;101460.77;110626;1256;22461;-53
2024/01/01 09:12:35;;;;;;;;;;;;;;;15.39;57.84;101456.39;110644;1251;22442;-52
2024/01/01 09:15:01;;;;;;;;;;;;;;;15.41;57.82;101457.05;110616;1256;22428;-52
2024/01/01 09:17:28;;;;;;;;;;;;;;;15.42;57.83;101456.83;110639;1251;23096;-52
2024/01/01 09:19:55;;;;;;;;;;;;;;;15.44;57.80;101450.15;110589;1263;22434;-53
2024/01/01 09:22:22;;;;;;;;;;;;;;;15.46;57.81;101444.32;110603;1254;22460;-52
2024/01/01 09:24:49;;;;;;;;;;;;;;;15.47;57.83;101438.33;110603;1256;22417;-53
2024/01/01 09:27:16;;;;;;;;;;;;;;;15.49;57.71;101426.91;110613;1256;22433;-53
2024/01/01 09:29:43;;;;;;;;;;;;;;;15.51;57.78;101425.09;110604;1264;22540;-53
2024/01/01 09:32:09;;;;;;;;;;;;;;;15.54;57.69;101419.79;110610;1257;22412;-53
2024/01/01 09:34:36;;;;;;;;;;;;;;;15.55;57.61;101417.63;110537;1261;22504;-53
2024/01/01 09:37:03;;;;;;;;;;;;;;;15.57;57.60;101410.92;110656;1257;23686;-53
2024/01/01 09:39:30;;;;;;;;;;;;;;;15.59;57.62;101409.98;110645;1259;23113;-53
2024/01/01 09:41:57;;;;;;;;;;;;;;;15.61;57.63;101406.95;110640;1251;23314;-52
2024/01/01 09:44:24;;;;;;;;;;;;;;;15.64;57.55;101403.19;110568;1263;22411;-52
2024/01/01 09:46:50;;;;;;;;;;;;;;;15.66;57.45;101398.39;110577;1251;22446;-53
2024/01/01 09:49:17;;;;;;;;;;;;;;;15.69;57.47;101397.41;110619;1256;23165;-53
2024/01/01 09:51:44;;;;;;;;;;;;;;;15.72;57.37;101393.29;110602;1257;22456;-53
2024/01/01 09:54:10;;;;;;;;;;;;;;;15.74;57.27;101392.86;110533;1256;22437;-53
2024/01/01 09:56:37;;;;;;;;;;;;;;;15.76;57.26;101388.27;110576;1257;22401;-53
2024/01/01 09:59:04;;;;;;;;;;;;;;;15.79;57.22;101382.04;110601;1257;23212;-53
2024/01/01 10:01:33;;;;;;;;;;;;;;;15.81;57.03;101381.09;110432;1260;22458;-53
2024/01/01 10:04:03;;;;;;;;;;;;;;;15.83;56.98;101372.80;110592;1256;23183;-53
2024/01/01 10:06:30;;;;;;;;;;;;;;;15.85;56.90;101362.91;110593;1251;22475;-53
2024/01/01 10:09:09;;;;;;;;;;;;;;;15.87;56.82;101357.62;110526;1264;22419;-53
2024/01/01 10:11:41;;;;;;;;;;;;;;;15.87;56.78;101348.86;110576;1251;22406;-53
2024/01/01 10:14:08;;;;;;;;;;;;;;;15.88;56.74;101341.64;110618;1255;22511;-53
2024/01/01 10:16:34;;;;;;;;;;;;;;;15.89;56.69;101334.29;110587;1263;22484;-53
2024/01/01 10:19:01;;;;;;;;;;;;;;;15.90;56.76;101326.22;110602;1256;22423;-53
2024/01/01 10:21:38;;;;;;;;;;;;;;;15.91;56.67;101320.40;110575;1260;22500;-53
2024/01/01 10:24:15;;;;;;;;;;;;;;;15.92;56.56;101321.39;110559;1257;22451;-53
2024/01/01 10:26:56;;;;;;;;;;;;;;;15.94;56.45;101318.01;110629;1255;23162;-53
2024/01/01 10:29:23;;;;;;;;;;;;;;;15.94;56.46;101312.76;110353;1266;22490;-53
2024/01/01 10:31:50;;;;;;;;;;;;;;;15.95;56.34;101309.23;110341;1258;22462;-53
2024/01/01 10:34:18;;;;;;;;;;;;;;;15.96;56.31;101305.17;110572;1260;22406;-53
2024/01/01 10:36:44;;;;;;;;;;;;;;;15.97;56.24;101296.90;110588;1251;22824;-53
2024/01/01 10:39:11;;;;;;;;;;;;;;;15.96;56.16;101295.15;110585;1266;22438;-53
2024/01/01 10:41:38;;;;;;;;;;;;;;;15.95;56.08;101292.41;110638;1251;22402;-53
2024/01/01 10:44:08;;;;;;;;;;;;;;;15.94;56.00;101295.80;110564;1264;22401;-53
2024/01/01 10:46:38;;;;;;;;;;;;;;;15.92;56.00;101285.54;110619;1255;22450;-53
2024/01/01 10:49:05;;;;;;;;;;;;;;;15.92;56.00;101282.22;110583;1254;22411;-53
2024/01/01 10:51:34;;;;;;;;;;;;;;;15.91;55.99;101281.20;110202;1260;23162;-53
2024/01/01 10:54:13;;;;;;;;;;;;;;;15.90;55.94;101277.22;109701;1254;1002922;-53
2024/01/01 10:56:43;;;;;;;;;;;;;;;15.89;55.91;101274.25;110485;1263;22396;-53
2024/01/01 10:59:12;;;;;;;;;;;;;;;15.88;55.98;101273.42;110490;1260;22508;-53
2024/01/01 11:01:39;;;;;;;;;;;;;;;15.88;55.96;101265.91;110479;1260;22398;-53
2024/01/01 11:04:06;;;;;;;;;;;;;;;15.88;55.94;101265.73;110328;1260;22473;-53
2024/01/01 11:06:35;;;;;;;;;;;;;;;15.88;55.89;101263.64;110569;1252;23076;-53
2024/01/01 11:09:20;;;;;;;;;;;;;;;15.86;55.76;101256.00;110587;1251;22392;-53
2024/01/01 11:11:50;;;;;;;;;;;;;;;15.86;55.84;101257.05;110557;1259;22447;-53
2024/01/01 11:14:23;;;;;;;;;;;;;;;15.86;55.89;101250.41;110190;1268;22439;-53
2024/01/01 11:16:53;;;;;;;;;;;;;;;15.86;55.84;101248.47;110616;1253;22452;-52
2024/01/01 11:19:36;;;;;;;;;;;;;;;15.86;55.84;101242.02;110372;1257;23309;-53
2024/01/01 11:22:18;;;;;;;;;;;;;;;15.84;55.91;101236.65;110536;1254;22456;-53
2024/01/01 11:24:48;;;;;;;;;;;;;;;15.85;56.00;101226.48;110383;1274;22407;-53
2024/01/01 11:27:23;;;;;;;;;;;;;;;15.86;56.03;101222.40;110604;1256;22424;-53
2024/01/01 11:29:50;;;;;;;;;;;;;;;15.89;56.04;101227.38;110580;1267;22430;-53
2024/01/01 11:32:17;;;;;;;;;;;;;;;15.91;55.89;101225.92;110563;1265;22457;-53
2024/01/01 11:34:44;;;;;;;;;;;;;;;15.91;55.85;101224.85;110623;1251;22438;-53
2024/01/01 11:37:20;;;;;;;;;;;;;;;15.91;55.81;101220.82;110595;1254;22454;-53
2024/01/01 11:39:57;;;;;;;;;;;;;;;15.91;55.82;101224.68;110602;1256;22432;-53
2024/01/01 11:42:25;;;;;;;;;;;;;;;15.91;55.73;101216.45;110569;1262;22383;-54
2024/01/01 11:45:04;;;;;;;;;;;;;;;15.92;55.73;101211.88;110571;1258;22393;-53
2024/01/01 11:47:33;;;;;;;;;;;;;;;15.90;55.78;101208.25;110635;1262;22433;-52
2024/01/01 11:50:02;;;;;;;;;;;;;;;15.90;55.81;101202.32;110567;1251;22449;-53
2024/01/01 11:52:29;;;;;;;;;;;;;;;15.91;55.81;101196.69;110595;1260;22413;-53
2024/01/01 11:54:56;;;;;;;;;;;;;;;15.92;55.82;101190.01;110615;1256;23245;-53
2024/01/01 11:57:23;;;;;;;;;;;;;;;15.92;55.84;101186.85;110560;1257;23124;-54
2024/01/01 11:59:50;;;;;;;;;;;;;;;15.92;55.85;101180.55;110622;1257;23151;-53
2024/01/01 12:02:17;;;;;;;;;;;;;;;15.91;55.77;101181.81;110588;1256;23137;-53
2024/01/01 12:04:45;;;;;;;;;;;;;;;15.89;55.89;101175.77;109776;1263;1002356;-52
2024/01/01 12:07:32;;;;;;;;;;;;;;;15.87;55.93;101175.65;110447;1254;22410;-53
2024/01/01 12:10:00;;;;;;;;;;;;;;;15.87;55.99;101172.16;110343;1256;327291;-53
2024/01/01 12:12:26;;;;;;;;;;;;;;;15.85;55.98;101169.78;110601;1251;22424;-53
2024/01/01 12:15:06;;;;;;;;;;;;;;;15.81;56.05;101163.98;110580;1260;22428;-53
2024/01/01 12:17:36;;;;;;;;;;;;;;;15.79;56.18;101159.52;110577;1253;22496;-53
2024/01/01 12:20:04;;;;;;;;;;;;;;;15.77;56.17;101158.02;110607;1253;22415;-53
2024/01/01 12:22:31;;;;;;;;;;;;;;;15.74;56.21;101159.20;110436;1254;22542;-53
2024/01/01 12:24:57;;;;;;;;;;;;;;;15.72;56.31;101156.45;110613;1262;22402;-53
2024/01/01 12:27:24;;;;;;;;;;;;;;;15.73;56.37;101151.52;110604;1253;22444;-53